Time;durP1;ratioP1;P1;durP2;ratioP2;P2;SDS_P1;SDS_P2;PMS_P1;PMS_P2;Temp;Humidity;BMP_temperature;BMP_pressure;BME280_temperature;BME280_humidity;BME280_pressure;Samples;Min_cycle;Max_cycle;Signal;HPM_P1;HPM_P2
2021/09/11 00:03:49;;;;;;;18.83;11.63;;;17.10;80.20;;;;;;5739769;23;20062;-95
2021/09/11 00:06:23;;;;;;;16.92;11.30;;;17.10;80.40;;;;;;5081645;23;20051;-96
2021/09/11 00:08:49;;;;;;;14.25;10.65;;;17.10;81.20;;;;;;5091145;23;20489;-96
2021/09/11 00:11:18;;;;;;;13.93;10.70;;;17.10;81.40;;;;;;5027517;23;20055;-96
2021/09/11 00:13:49;;;;;;;15.07;9.93;;;17.10;80.80;;;;;;4954007;29;20027;-96
2021/09/11 00:16:19;;;;;;;13.10;9.32;;;17.10;81.00;;;;;;4961593;29;20023;-96
2021/09/11 00:18:51;;;;;;;13.15;9.98;;;17.00;81.20;;;;;;4963209;29;20031;-96
2021/09/11 00:21:22;;;;;;;11.32;9.68;;;17.00;81.50;;;;;;4958901;29;20035;-96
2021/09/11 00:23:48;;;;;;;14.40;10.38;;;17.00;82.10;;;;;;4941823;29;20059;-96
2021/09/11 00:26:22;;;;;;;13.13;9.88;;;16.90;82.20;;;;;;4959898;28;20031;-96
2021/09/11 00:28:51;;;;;;;12.90;10.07;;;16.90;82.30;;;;;;4960678;28;20035;-96
2021/09/11 00:31:19;;;;;;;12.55;10.02;;;16.90;82.50;;;;;;4959807;29;20048;-96
2021/09/11 00:36:30;;;;;;;17.70;10.32;;;16.80;83.60;;;;;;5742563;23;20055;-96
2021/09/11 00:39:00;;;;;;;12.68;9.13;;;16.80;84.00;;;;;;4977697;28;20023;-96
2021/09/11 00:41:34;;;;;;;15.63;10.65;;;16.80;83.10;;;;;;4962586;28;20086;-96
2021/09/11 00:47:07;;;;;;;14.55;9.32;;;16.70;83.10;;;;;;5918452;23;20025;-96
2021/09/11 00:49:42;;;;;;;13.60;9.48;;;16.60;84.10;;;;;;4958230;29;20057;-96
2021/09/11 00:54:50;;;;;;;11.05;9.75;;;16.60;84.50;;;;;;4990109;23;20094;-96
2021/09/11 00:57:28;;;;;;;14.50;10.68;;;16.50;84.90;;;;;;4941604;29;20047;-96
2021/09/11 01:00:02;;;;;;;15.13;10.75;;;16.60;85.30;;;;;;4941511;29;20074;-96
2021/09/11 01:02:27;;;;;;;12.43;9.85;;;16.50;85.40;;;;;;5043180;23;20047;-95
2021/09/11 01:07:31;;;;;;;14.40;9.82;;;16.50;85.40;;;;;;5019634;23;20070;-96
2021/09/11 01:09:59;;;;;;;15.18;10.57;;;16.50;85.30;;;;;;4945290;29;20034;-96
2021/09/11 01:12:28;;;;;;;14.25;10.48;;;16.50;85.30;;;;;;4956692;29;20031;-96
2021/09/11 01:14:54;;;;;;;13.48;10.70;;;16.40;85.60;;;;;;4961084;29;20119;-96
2021/09/11 01:17:23;;;;;;;15.43;10.38;;;16.40;85.60;;;;;;4961409;29;20034;-96
2021/09/11 01:19:48;;;;;;;13.15;9.68;;;16.40;85.60;;;;;;4947375;29;20095;-96
2021/09/11 01:22:16;;;;;;;14.80;10.07;;;16.40;85.70;;;;;;4938461;29;20450;-95
2021/09/11 01:24:57;;;;;;;13.70;9.43;;;16.40;86.10;;;;;;4938783;29;20042;-94
2021/09/11 01:27:24;;;;;;;12.90;9.60;;;16.30;85.90;;;;;;4940106;29;20031;-95
2021/09/11 01:30:17;;;;;;;15.40;10.63;;;16.30;85.80;;;;;;4940330;29;20035;-96
2021/09/11 01:32:44;;;;;;;10.65;8.45;;;16.30;86.10;;;;;;4938557;29;20045;-96
2021/09/11 01:35:11;;;;;;;11.57;8.93;;;16.30;85.90;;;;;;4956478;29;20035;-96
2021/09/11 01:37:37;;;;;;;12.95;10.15;;;16.20;85.70;;;;;;4939609;29;20039;-95
2021/09/11 01:40:04;;;;;;;11.07;9.00;;;16.20;85.90;;;;;;4939056;29;20090;-95
2021/09/11 01:42:30;;;;;;;15.82;9.77;;;16.10;86.30;;;;;;4939853;29;20031;-95
2021/09/11 01:45:00;;;;;;;12.60;9.52;;;16.10;86.50;;;;;;4940032;29;20031;-96
2021/09/11 01:47:26;;;;;;;13.57;8.88;;;16.00;86.60;;;;;;4941217;29;20497;-96
2021/09/11 01:49:53;;;;;;;13.07;8.88;;;16.00;86.80;;;;;;4940394;29;20031;-96
2021/09/11 01:52:21;;;;;;;11.65;8.65;;;15.90;86.90;;;;;;4939425;28;20455;-96
2021/09/11 01:54:46;;;;;;;13.93;11.18;;;15.90;87.30;;;;;;4941549;29;20133;-95
2021/09/11 01:57:13;;;;;;;16.65;9.75;;;15.80;88.10;;;;;;4942606;29;20031;-96
2021/09/11 01:59:40;;;;;;;12.30;9.43;;;15.80;88.20;;;;;;4942403;29;20451;-95
2021/09/11 02:02:07;;;;;;;12.90;9.52;;;15.80;88.50;;;;;;4959208;29;20074;-96
2021/09/11 02:04:34;;;;;;;14.35;9.18;;;15.70;88.40;;;;;;4939729;29;20031;-96
2021/09/11 02:07:02;;;;;;;11.75;9.68;;;15.70;88.60;;;;;;4934968;29;20052;-95
2021/09/11 02:09:28;;;;;;;15.55;10.38;;;15.70;88.60;;;;;;4927143;29;20039;-95
2021/09/11 02:11:53;;;;;;;13.95;9.63;;;15.70;88.60;;;;;;4922058;29;20028;-95
2021/09/11 02:14:20;;;;;;;14.93;9.80;;;15.60;88.60;;;;;;4921023;29;20124;-95
2021/09/11 02:16:46;;;;;;;15.65;10.27;;;15.60;88.80;;;;;;4920023;29;20028;-96
2021/09/11 02:19:12;;;;;;;10.93;8.65;;;15.50;89.00;;;;;;4920490;29;20028;-96
2021/09/11 02:21:38;;;;;;;14.10;9.63;;;15.40;89.20;;;;;;4921402;29;20032;-95
2021/09/11 02:24:04;;;;;;;14.48;9.55;;;15.40;89.50;;;;;;4920798;29;20034;-95
2021/09/11 02:26:31;;;;;;;13.93;9.70;;;15.30;89.90;;;;;;4922287;29;20052;-95
2021/09/11 02:28:56;;;;;;;13.07;9.05;;;15.30;90.10;;;;;;4922337;29;20033;-95
2021/09/11 02:31:22;;;;;;;15.75;9.63;;;15.20;90.10;;;;;;4933467;29;20100;-95
2021/09/11 02:33:48;;;;;;;11.82;9.40;;;15.20;90.30;;;;;;4933466;29;20024;-95
2021/09/11 02:36:14;;;;;;;14.32;9.98;;;15.10;90.30;;;;;;4928234;29;20071;-95
2021/09/11 02:38:40;;;;;;;12.93;9.60;;;15.10;90.30;;;;;;4923959;29;20040;-96
2021/09/11 02:41:06;;;;;;;12.60;8.57;;;15.10;90.40;;;;;;4924747;29;20037;-95
2021/09/11 02:43:32;;;;;;;13.00;9.90;;;15.10;90.60;;;;;;4931722;29;20033;-96
2021/09/11 02:46:00;;;;;;;11.52;8.63;;;15.00;90.70;;;;;;4931531;29;20044;-95
2021/09/11 02:48:26;;;;;;;11.88;9.73;;;15.00;91.00;;;;;;4930104;29;20040;-94
2021/09/11 02:50:54;;;;;;;12.50;8.90;;;15.00;91.00;;;;;;4924204;29;20043;-95
2021/09/11 02:53:20;;;;;;;13.02;9.88;;;15.00;91.10;;;;;;4922937;29;20032;-95
2021/09/11 02:55:46;;;;;;;14.90;10.38;;;15.00;91.10;;;;;;4926666;29;20063;-95
2021/09/11 02:58:12;;;;;;;11.95;8.60;;;15.00;91.20;;;;;;4935727;29;20052;-96
2021/09/11 03:00:41;;;;;;;14.23;10.88;;;15.00;91.20;;;;;;4929856;29;20071;-96
2021/09/11 03:03:12;;;;;;;11.75;8.98;;;15.00;91.30;;;;;;4934000;29;20035;-96
2021/09/11 03:05:38;;;;;;;14.23;9.75;;;15.00;91.30;;;;;;4934074;29;20108;-96
2021/09/11 03:08:04;;;;;;;12.40;9.90;;;15.00;91.30;;;;;;4969976;29;20055;-96
2021/09/11 03:10:32;;;;;;;15.02;10.43;;;15.00;91.30;;;;;;4958417;29;20035;-96
2021/09/11 03:12:58;;;;;;;11.52;8.45;;;15.00;91.40;;;;;;4957333;29;20030;-96
2021/09/11 03:15:24;;;;;;;14.93;9.00;;;15.00;91.70;;;;;;4956172;29;20035;-96
2021/09/11 03:17:50;;;;;;;12.38;9.82;;;14.90;91.50;;;;;;4957296;29;20043;-96
2021/09/11 03:20:16;;;;;;;12.80;9.60;;;14.90;91.50;;;;;;4956075;29;20086;-96
2021/09/11 03:22:47;;;;;;;13.52;9.77;;;14.90;91.80;;;;;;4958841;29;20032;-96
2021/09/11 03:25:18;;;;;;;12.20;9.65;;;14.90;91.70;;;;;;4957101;29;20031;-96
2021/09/11 03:27:47;;;;;;;12.63;9.25;;;14.80;91.70;;;;;;5120539;23;20182;-96
2021/09/11 03:33:14;;;;;;;14.55;10.30;;;14.80;92.20;;;;;;5055000;23;20055;-96
2021/09/11 03:35:42;;;;;;;13.75;10.60;;;14.80;92.40;;;;;;4945739;29;20107;-96
2021/09/11 03:56:23;;;;;;;15.02;11.05;;;14.90;92.50;;;;;;5978924;23;20022;-95
2021/09/11 04:30:30;;;;;;;15.38;11.98;;;15.70;92.80;;;;;;5804164;23;20119;-94
2021/09/11 04:32:56;;;;;;;17.45;11.80;;;15.80;92.80;;;;;;5452678;23;20030;-94
2021/09/11 04:35:22;;;;;;;19.40;12.85;;;15.90;92.90;;;;;;4952499;28;20098;-95
2021/09/11 04:37:47;;;;;;;20.35;15.27;;;16.00;92.90;;;;;;4959274;29;20458;-96
2021/09/11 04:40:14;;;;;;;16.70;13.88;;;16.10;93.20;;;;;;4957708;29;20447;-96
2021/09/11 04:42:39;;;;;;;17.27;12.85;;;16.10;93.10;;;;;;4940136;29;20027;-95
2021/09/11 04:45:06;;;;;;;19.50;14.05;;;16.20;92.90;;;;;;4956866;29;20170;-96
2021/09/11 04:47:31;;;;;;;20.92;13.98;;;16.30;92.80;;;;;;4957664;29;20054;-95
2021/09/11 04:49:57;;;;;;;17.50;13.80;;;16.40;92.80;;;;;;4943975;29;20459;-96
2021/09/11 04:52:23;;;;;;;17.77;14.00;;;16.40;92.70;;;;;;4940173;29;20115;-96
2021/09/11 04:54:49;;;;;;;20.95;15.80;;;16.50;92.70;;;;;;4939862;29;20129;-96
2021/09/11 04:57:14;;;;;;;17.88;14.75;;;16.50;92.80;;;;;;4940009;29;20033;-95
2021/09/11 04:59:40;;;;;;;19.05;14.90;;;16.50;92.70;;;;;;4940704;29;20061;-96
2021/09/11 05:02:06;;;;;;;15.25;12.38;;;16.60;92.60;;;;;;4957802;29;20396;-96
2021/09/11 05:04:32;;;;;;;16.80;13.68;;;16.60;92.50;;;;;;4939626;29;20028;-96
2021/09/11 05:06:59;;;;;;;19.17;16.00;;;16.70;92.40;;;;;;4940329;29;20055;-95
2021/09/11 05:09:25;;;;;;;16.60;13.00;;;16.70;92.40;;;;;;4939857;29;20447;-94
2021/09/11 05:11:51;;;;;;;18.85;14.95;;;16.80;92.20;;;;;;4955330;29;20082;-94
2021/09/11 05:14:17;;;;;;;18.17;13.65;;;16.80;92.40;;;;;;4940085;29;20478;-95
2021/09/11 05:16:43;;;;;;;16.45;13.77;;;16.90;92.00;;;;;;4939663;29;20035;-94
2021/09/11 05:19:09;;;;;;;17.85;14.40;;;17.00;92.00;;;;;;4957326;29;20034;-94
2021/09/11 05:21:34;;;;;;;16.73;14.45;;;17.00;91.80;;;;;;4940354;29;20085;-94
2021/09/11 05:24:00;;;;;;;16.17;13.75;;;17.10;91.70;;;;;;4940375;29;20360;-95
2021/09/11 05:26:26;;;;;;;15.80;13.95;;;17.20;91.60;;;;;;4939946;29;20038;-95
2021/09/11 05:28:52;;;;;;;19.83;14.38;;;17.30;91.50;;;;;;4943308;29;20027;-95
2021/09/11 05:31:18;;;;;;;22.15;16.70;;;17.40;91.40;;;;;;4944945;29;20062;-95
2021/09/11 05:33:43;;;;;;;19.40;16.52;;;17.40;91.20;;;;;;4966438;29;20062;-94
2021/09/11 05:36:09;;;;;;;16.70;14.13;;;17.50;91.00;;;;;;4946660;29;20102;-95
2021/09/11 05:38:35;;;;;;;17.92;15.60;;;17.50;90.90;;;;;;4943583;29;20055;-95
2021/09/11 05:41:01;;;;;;;16.80;14.48;;;17.60;90.70;;;;;;4960380;29;20394;-95
2021/09/11 05:43:26;;;;;;;17.27;15.13;;;17.70;90.60;;;;;;4943870;29;20403;-95
2021/09/11 05:45:52;;;;;;;24.15;16.90;;;17.70;90.80;;;;;;4960121;29;20034;-95
2021/09/11 05:48:18;;;;;;;19.83;15.82;;;17.70;90.40;;;;;;4943572;29;20130;-95
2021/09/11 05:50:44;;;;;;;19.77;15.88;;;17.80;90.30;;;;;;4944303;29;20051;-95
2021/09/11 05:53:09;;;;;;;18.38;15.32;;;17.80;90.30;;;;;;4944487;29;20027;-94
2021/09/11 05:55:35;;;;;;;18.25;15.18;;;17.80;90.20;;;;;;4962340;29;20166;-95
2021/09/11 05:58:01;;;;;;;16.45;14.02;;;18.00;90.20;;;;;;4960387;29;20034;-95
2021/09/11 06:00:27;;;;;;;15.40;13.80;;;18.10;90.10;;;;;;4943735;29;20031;-95
2021/09/11 06:02:53;;;;;;;18.13;15.95;;;18.20;90.00;;;;;;4960549;29;20027;-95
2021/09/11 06:05:18;;;;;;;15.35;13.73;;;18.30;89.50;;;;;;4943361;29;20126;-95
2021/09/11 06:07:44;;;;;;;18.13;15.27;;;18.50;89.10;;;;;;4943571;29;20467;-95
2021/09/11 06:10:11;;;;;;;20.27;17.83;;;18.60;88.60;;;;;;4960664;29;20038;-95
2021/09/11 06:12:37;;;;;;;17.80;15.90;;;18.70;88.30;;;;;;4959194;29;20098;-96
2021/09/11 06:15:05;;;;;;;17.75;15.90;;;18.70;88.20;;;;;;4943295;29;20138;-95
2021/09/11 06:17:31;;;;;;;22.83;18.65;;;18.70;88.30;;;;;;4947561;29;20035;-95
2021/09/11 06:19:57;;;;;;;17.25;15.45;;;18.70;88.10;;;;;;4947279;29;20032;-95
2021/09/11 06:22:24;;;;;;;21.52;16.75;;;18.80;88.00;;;;;;4963142;29;20122;-95
2021/09/11 06:24:50;;;;;;;18.90;15.32;;;18.90;87.60;;;;;;4948170;29;20039;-95
2021/09/11 06:27:18;;;;;;;17.85;15.68;;;19.00;87.30;;;;;;4947670;29;20023;-96
2021/09/11 06:29:44;;;;;;;16.55;14.35;;;19.10;87.10;;;;;;4949788;29;20023;-95
2021/09/11 06:32:10;;;;;;;17.65;15.77;;;19.20;87.10;;;;;;4943778;29;20027;-95
2021/09/11 06:34:36;;;;;;;18.65;16.35;;;19.30;86.80;;;;;;4942307;29;20135;-96
2021/09/11 06:37:02;;;;;;;17.42;15.38;;;19.30;86.50;;;;;;4942391;29;20123;-96
2021/09/11 06:39:27;;;;;;;16.55;14.75;;;19.40;86.10;;;;;;4941250;29;20027;-96
2021/09/11 06:41:53;;;;;;;18.42;14.45;;;19.50;85.40;;;;;;4942398;29;20064;-96
2021/09/11 06:44:19;;;;;;;20.58;14.45;;;19.60;84.90;;;;;;4943275;29;20471;-96
2021/09/11 06:46:45;;;;;;;14.93;13.30;;;19.70;84.10;;;;;;4942850;29;20028;-96
2021/09/11 06:49:10;;;;;;;17.45;14.68;;;19.80;83.30;;;;;;4942949;29;20364;-96
2021/09/11 06:51:36;;;;;;;19.73;13.95;;;19.90;82.50;;;;;;4942087;29;20031;-95
2021/09/11 06:54:02;;;;;;;15.77;14.07;;;20.00;81.70;;;;;;4958857;29;20031;-96
2021/09/11 06:56:28;;;;;;;14.75;13.23;;;20.00;81.30;;;;;;4944153;29;20557;-96
2021/09/11 06:58:53;;;;;;;16.27;12.90;;;20.10;80.30;;;;;;4946561;29;20041;-95
2021/09/11 07:01:21;;;;;;;15.57;12.27;;;20.20;80.30;;;;;;4948078;29;20039;-96
2021/09/11 07:03:47;;;;;;;16.23;12.43;;;20.30;80.10;;;;;;4943492;29;20076;-94
2021/09/11 07:06:13;;;;;;;13.70;12.30;;;20.40;79.80;;;;;;4959179;29;20042;-94
2021/09/11 07:08:39;;;;;;;13.70;12.07;;;20.60;79.10;;;;;;4943517;29;20030;-96
2021/09/11 07:11:09;;;;;;;14.35;12.85;;;20.70;78.40;;;;;;4945149;29;20035;-94
2021/09/11 07:13:35;;;;;;;13.32;11.93;;;20.80;76.70;;;;;;4943536;29;20114;-94
2021/09/11 07:16:00;;;;;;;13.88;12.05;;;20.80;76.00;;;;;;4942574;29;20067;-94
2021/09/11 07:18:26;;;;;;;17.40;10.68;;;20.90;75.80;;;;;;4942397;29;20031;-93
2021/09/11 07:20:52;;;;;;;11.00;9.77;;;21.00;75.50;;;;;;4941959;29;20024;-94
2021/09/11 07:23:17;;;;;;;11.18;10.07;;;21.10;75.30;;;;;;4958510;29;20027;-94
2021/09/11 07:25:43;;;;;;;11.20;9.60;;;21.20;75.20;;;;;;4942366;29;20077;-94
2021/09/11 07:28:09;;;;;;;9.95;8.93;;;21.40;74.50;;;;;;4958014;29;20386;-94
2021/09/11 07:30:35;;;;;;;11.52;9.70;;;21.50;74.10;;;;;;4959236;29;20114;-94
2021/09/11 07:33:01;;;;;;;10.13;9.05;;;21.60;73.40;;;;;;4959346;29;20447;-94
2021/09/11 07:35:27;;;;;;;9.75;8.27;;;21.80;73.10;;;;;;4958190;29;20042;-96
2021/09/11 07:37:53;;;;;;;9.85;8.02;;;21.90;72.30;;;;;;4958702;29;20024;-95
2021/09/11 07:40:19;;;;;;;12.32;8.55;;;22.00;71.60;;;;;;4960994;29;20494;-94
2021/09/11 07:42:44;;;;;;;10.88;9.27;;;22.10;71.40;;;;;;4957942;29;20122;-94
2021/09/11 07:45:13;;;;;;;10.30;8.20;;;22.20;70.90;;;;;;4959072;29;20097;-95
2021/09/11 07:47:40;;;;;;;9.90;8.90;;;22.30;70.40;;;;;;4960496;29;20034;-94
2021/09/11 07:50:10;;;;;;;8.23;7.35;;;22.30;69.60;;;;;;4960297;28;20529;-94
2021/09/11 07:52:36;;;;;;;14.52;9.13;;;22.40;69.90;;;;;;4942934;29;20023;-95
2021/09/11 07:55:02;;;;;;;12.55;7.50;;;22.50;69.30;;;;;;4959088;29;20126;-94
2021/09/11 07:57:28;;;;;;;10.90;8.55;;;22.50;68.90;;;;;;4958341;29;20462;-95
2021/09/11 07:59:55;;;;;;;10.68;9.35;;;22.70;68.30;;;;;;4959675;29;20023;-96
2021/09/11 08:02:21;;;;;;;10.23;9.10;;;22.70;67.60;;;;;;4970178;29;20023;-94
2021/09/11 08:04:46;;;;;;;14.20;9.30;;;22.70;67.20;;;;;;4976266;29;20091;-95
2021/09/11 08:07:12;;;;;;;8.85;7.93;;;22.70;67.50;;;;;;4976275;29;20115;-95
2021/09/11 08:09:38;;;;;;;10.90;7.95;;;22.70;67.60;;;;;;4972477;29;20024;-95
2021/09/11 08:12:04;;;;;;;9.68;8.07;;;22.80;67.30;;;;;;4973439;29;20039;-94
2021/09/11 08:14:30;;;;;;;9.30;8.20;;;22.90;67.10;;;;;;4950624;29;20031;-96
2021/09/11 08:16:55;;;;;;;8.25;7.28;;;23.00;66.40;;;;;;4943591;29;20126;-95
2021/09/11 08:19:21;;;;;;;10.10;7.97;;;23.10;66.10;;;;;;4941830;29;20023;-94
2021/09/11 08:21:47;;;;;;;8.15;7.22;;;23.10;65.80;;;;;;4941416;29;20031;-95
2021/09/11 08:24:13;;;;;;;9.32;7.63;;;23.20;65.70;;;;;;4942144;29;20035;-96
2021/09/11 08:26:38;;;;;;;8.38;7.40;;;23.20;64.60;;;;;;4960829;29;20058;-96
2021/09/11 08:29:04;;;;;;;8.90;7.15;;;23.20;65.10;;;;;;4942215;29;20027;-96
2021/09/11 08:31:30;;;;;;;7.90;6.90;;;23.30;64.00;;;;;;4941821;29;20027;-95
2021/09/11 08:33:56;;;;;;;7.78;6.40;;;23.30;63.10;;;;;;4942144;29;20059;-95
2021/09/11 08:36:24;;;;;;;7.88;6.90;;;23.40;63.00;;;;;;4943880;29;20031;-96
2021/09/11 08:38:50;;;;;;;6.68;5.95;;;23.40;62.10;;;;;;4945372;29;20125;-96
2021/09/11 08:41:16;;;;;;;9.50;7.18;;;23.40;60.80;;;;;;4944104;29;20027;-95
2021/09/11 08:43:42;;;;;;;7.82;6.07;;;23.50;61.60;;;;;;4944824;29;20027;-95
2021/09/11 08:46:08;;;;;;;15.25;7.50;;;23.50;61.50;;;;;;4944110;29;20042;-95
2021/09/11 08:48:34;;;;;;;11.27;7.30;;;23.60;61.80;;;;;;4941975;29;20399;-95
2021/09/11 08:51:00;;;;;;;8.75;6.80;;;23.70;62.00;;;;;;4961559;29;20063;-96
2021/09/11 08:53:25;;;;;;;9.85;6.93;;;23.80;62.10;;;;;;4942309;29;20031;-95
2021/09/11 08:55:51;;;;;;;8.50;7.13;;;23.90;61.90;;;;;;4962076;29;20114;-95
2021/09/11 08:58:21;;;;;;;8.65;7.38;;;24.00;61.60;;;;;;4941676;29;20039;-95
2021/09/11 09:00:50;;;;;;;7.55;6.75;;;24.10;61.30;;;;;;4955639;29;20027;-95
2021/09/11 09:03:34;;;;;;;8.60;7.22;;;24.20;61.40;;;;;;4940646;29;20122;-95
2021/09/11 09:06:12;;;;;;;10.25;7.22;;;24.30;60.10;;;;;;4938873;29;20055;-95
2021/09/11 09:08:38;;;;;;;9.57;7.65;;;24.40;59.60;;;;;;4946337;29;20035;-95
2021/09/11 09:11:17;;;;;;;10.35;7.50;;;24.40;60.50;;;;;;4940328;29;20115;-96
2021/09/11 09:13:51;;;;;;;10.50;7.30;;;24.50;59.90;;;;;;4928759;29;20095;-96
2021/09/11 09:16:17;;;;;;;10.35;7.13;;;24.60;59.70;;;;;;4940597;29;20040;-96
2021/09/11 09:18:43;;;;;;;8.65;7.28;;;24.60;60.20;;;;;;4941696;29;20172;-96
2021/09/11 09:21:20;;;;;;;7.88;7.03;;;24.60;60.10;;;;;;4958098;29;20075;-96
2021/09/11 09:23:48;;;;;;;8.82;7.28;;;24.70;59.20;;;;;;4941009;29;20062;-94
2021/09/11 09:26:14;;;;;;;8.68;7.20;;;24.80;59.50;;;;;;4944615;29;20091;-96
2021/09/11 09:28:39;;;;;;;9.73;7.15;;;24.90;59.10;;;;;;4943927;29;20114;-96
2021/09/11 09:31:09;;;;;;;10.95;7.00;;;24.90;58.90;;;;;;4942842;29;20027;-96
2021/09/11 09:33:38;;;;;;;8.75;6.53;;;25.00;58.60;;;;;;4941796;29;20504;-96
2021/09/11 09:36:04;;;;;;;7.55;6.45;;;25.10;58.40;;;;;;4943054;29;20478;-96
2021/09/11 09:38:30;;;;;;;7.10;6.40;;;25.20;58.20;;;;;;4945540;29;20055;-94
2021/09/11 09:40:56;;;;;;;7.93;6.93;;;25.20;57.60;;;;;;4945426;29;20026;-94
2021/09/11 09:43:40;;;;;;;7.28;6.57;;;25.20;57.30;;;;;;4931657;29;20074;-95
2021/09/11 09:46:14;;;;;;;7.88;7.05;;;25.30;56.90;;;;;;4928852;29;20171;-95
2021/09/11 09:48:42;;;;;;;7.30;6.55;;;25.30;56.20;;;;;;4929172;29;20387;-94
2021/09/11 09:51:10;;;;;;;7.57;6.72;;;25.30;55.90;;;;;;4925788;29;20126;-94
2021/09/11 09:53:38;;;;;;;10.50;8.35;;;25.40;56.30;;;;;;4927342;29;20028;-95
2021/09/11 09:56:05;;;;;;;7.38;6.68;;;25.50;55.40;;;;;;4931957;29;20554;-96
2021/09/11 09:58:40;;;;;;;8.48;7.57;;;25.50;55.70;;;;;;4933280;29;20435;-95
2021/09/11 10:01:09;;;;;;;7.78;6.88;;;25.50;54.50;;;;;;4953087;29;20091;-95
2021/09/11 10:03:34;;;;;;;7.78;6.97;;;25.50;55.70;;;;;;4950971;29;20030;-95
2021/09/11 10:06:06;;;;;;;9.40;7.28;;;25.60;55.30;;;;;;4937766;29;20379;-96
2021/09/11 10:08:37;;;;;;;8.48;6.80;;;25.60;55.00;;;;;;4949510;29;20039;-96
2021/09/11 10:11:10;;;;;;;9.07;7.40;;;25.60;54.40;;;;;;4947907;29;20007;-96
2021/09/11 10:13:37;;;;;;;7.93;6.93;;;25.60;54.40;;;;;;4947527;29;20028;-94
2021/09/11 10:16:10;;;;;;;10.88;6.82;;;25.60;54.10;;;;;;4958292;29;20105;-96
2021/09/11 10:21:24;;;;;;;9.07;6.25;;;25.70;54.00;;;;;;5000266;23;20055;-96
2021/09/11 10:27:24;;;;;;;7.63;6.60;;;25.80;52.30;;;;;;4950741;29;20038;-95
2021/09/11 10:31:25;;;;;;;7.30;6.10;;;25.80;53.50;;;;;;4931894;29;20185;-96
2021/09/11 10:33:50;;;;;;;7.20;6.50;;;25.90;53.10;;;;;;4985126;23;20047;-96
2021/09/11 10:36:47;;;;;;;6.65;5.63;;;26.00;53.20;;;;;;4936837;29;20043;-95
2021/09/11 10:39:20;;;;;;;6.80;6.00;;;26.10;52.70;;;;;;4956937;29;20039;-96
2021/09/11 10:48:06;;;;;;;6.57;5.97;;;26.20;52.50;;;;;;4997429;23;20106;-96
2021/09/11 10:51:24;;;;;;;6.85;6.15;;;26.30;51.80;;;;;;4977833;29;20113;-96
2021/09/11 10:54:08;;;;;;;6.72;5.95;;;26.30;51.80;;;;;;4944977;29;20550;-93
2021/09/11 10:56:50;;;;;;;6.50;5.88;;;26.40;52.10;;;;;;4949803;29;20099;-94
2021/09/11 10:59:16;;;;;;;7.22;6.53;;;26.40;51.90;;;;;;4935564;29;20031;-92
2021/09/11 11:01:55;;;;;;;6.40;5.70;;;26.40;52.00;;;;;;4956144;29;20031;-94
2021/09/11 11:04:40;;;;;;;6.80;6.07;;;26.40;51.30;;;;;;4929720;29;20035;-94
2021/09/11 11:07:11;;;;;;;7.03;6.15;;;26.40;50.80;;;;;;4924002;29;20036;-92
2021/09/11 11:09:46;;;;;;;7.15;5.65;;;26.40;50.80;;;;;;4948443;29;20050;-92
2021/09/11 11:12:37;;;;;;;7.95;6.63;;;26.40;50.50;;;;;;4942727;29;20031;-94
2021/09/11 11:15:48;;;;;;;6.75;6.05;;;26.40;50.00;;;;;;4928139;29;20498;-94
2021/09/11 11:18:13;;;;;;;7.25;6.50;;;26.40;50.40;;;;;;4939645;29;20023;-94
2021/09/11 11:20:39;;;;;;;6.88;6.18;;;26.40;50.70;;;;;;4929677;29;20030;-94
2021/09/11 11:23:12;;;;;;;10.00;6.35;;;26.40;50.90;;;;;;4946195;29;20061;-94
2021/09/11 11:25:39;;;;;;;6.80;5.72;;;26.50;50.80;;;;;;4942228;29;20023;-94
2021/09/11 11:28:07;;;;;;;10.50;6.30;;;26.50;50.90;;;;;;4958089;29;20035;-92
2021/09/11 11:30:42;;;;;;;7.95;6.28;;;26.50;50.60;;;;;;4937195;29;20032;-91
2021/09/11 11:33:09;;;;;;;6.93;5.68;;;26.50;50.10;;;;;;4932242;29;20410;-96
2021/09/11 11:35:51;;;;;;;8.80;6.35;;;26.50;50.30;;;;;;4941365;29;20065;-94
2021/09/11 11:38:34;;;;;;;6.40;5.78;;;26.50;50.60;;;;;;4942359;29;20058;-92
2021/09/11 11:41:06;;;;;;;7.55;6.38;;;26.50;50.50;;;;;;4941768;29;20032;-92
2021/09/11 11:43:33;;;;;;;10.00;6.47;;;26.50;50.60;;;;;;4960953;29;20470;-94
2021/09/11 11:46:03;;;;;;;7.35;6.32;;;26.50;50.60;;;;;;4940715;29;20071;-96
2021/09/11 11:48:46;;;;;;;7.65;6.68;;;26.50;50.70;;;;;;4949096;29;20051;-95
2021/09/11 11:51:15;;;;;;;8.35;5.50;;;26.50;50.60;;;;;;4935665;29;20032;-95
2021/09/11 11:53:45;;;;;;;7.80;6.05;;;26.60;50.90;;;;;;4947690;29;20035;-96
2021/09/11 11:56:14;;;;;;;6.70;6.03;;;26.60;51.10;;;;;;4930908;29;20154;-96
2021/09/11 11:59:27;;;;;;;6.97;6.28;;;26.60;51.00;;;;;;4963733;29;20066;-95
2021/09/11 12:34:14;;;;;;;7.35;6.13;;;27.00;48.50;;;;;;4971996;23;20082;-94
2021/09/11 12:36:46;;;;;;;7.35;6.65;;;27.00;48.50;;;;;;4963790;28;20043;-93
2021/09/11 12:39:18;;;;;;;7.00;5.45;;;27.10;47.80;;;;;;4938128;29;20035;-94
2021/09/11 13:12:59;;;;;;;6.20;5.60;;;30.80;45.90;;;;;;4936817;29;20052;-94
2021/09/11 13:15:25;;;;;;;6.28;5.03;;;31.20;45.40;;;;;;4938484;29;20072;-95
2021/09/11 13:17:52;;;;;;;5.38;4.88;;;31.70;45.30;;;;;;4918096;29;20127;-95
2021/09/11 13:20:21;;;;;;;6.03;5.25;;;32.20;44.90;;;;;;4931316;29;20034;-94
2021/09/11 13:26:14;;;;;;;6.38;5.75;;;33.10;42.70;;;;;;4937577;29;20116;-95
2021/09/11 13:32:04;;;;;;;6.50;5.35;;;33.30;40.70;;;;;;4939191;29;20055;-95
2021/09/11 13:34:42;;;;;;;6.38;5.78;;;33.40;42.00;;;;;;4906938;29;20078;-96
2021/09/11 14:05:04;;;;;;;6.32;5.72;;;34.30;38.20;;;;;;2557951;23;20308;-92
2021/09/11 14:07:45;;;;;;;6.47;5.88;;;34.20;38.50;;;;;;4908183;29;20064;-93
2021/09/11 14:10:13;;;;;;;7.03;6.32;;;34.20;37.80;;;;;;4913534;29;20058;-95
2021/09/11 14:12:47;;;;;;;6.20;5.55;;;34.30;38.50;;;;;;4893761;29;20092;-95
2021/09/11 14:15:16;;;;;;;6.28;5.68;;;34.50;38.40;;;;;;4909956;29;20040;-94
2021/09/11 14:17:44;;;;;;;7.07;5.85;;;34.80;38.00;;;;;;4906426;29;20059;-96
2021/09/11 14:20:13;;;;;;;6.28;5.43;;;35.00;37.40;;;;;;4912342;29;20091;-93
2021/09/11 14:22:51;;;;;;;5.82;5.32;;;35.20;37.50;;;;;;4904654;29;20032;-95
2021/09/11 14:25:25;;;;;;;6.15;5.55;;;35.60;36.60;;;;;;4903155;29;20036;-92
2021/09/11 14:27:51;;;;;;;5.68;5.03;;;35.90;36.80;;;;;;4880262;29;20044;-94
2021/09/11 14:30:19;;;;;;;6.43;5.82;;;36.10;36.70;;;;;;4906393;29;20087;-95
2021/09/11 14:32:47;;;;;;;6.53;5.82;;;36.30;36.60;;;;;;4909016;29;20048;-93
2021/09/11 14:35:13;;;;;;;7.53;6.82;;;36.20;36.30;;;;;;4900663;29;20036;-93
2021/09/11 14:37:46;;;;;;;6.40;5.80;;;35.90;35.90;;;;;;4902345;29;20036;-93
2021/09/11 14:40:12;;;;;;;6.68;6.05;;;35.80;36.40;;;;;;4889175;29;20036;-95
2021/09/11 14:42:40;;;;;;;6.13;5.38;;;35.60;36.30;;;;;;4912211;29;20028;-94
2021/09/11 14:45:08;;;;;;;5.82;5.25;;;35.70;36.30;;;;;;4920785;29;20036;-94
2021/09/11 14:47:36;;;;;;;5.88;5.25;;;35.90;36.40;;;;;;4903492;29;20046;-94
2021/09/11 14:50:03;;;;;;;5.20;4.70;;;36.20;36.30;;;;;;4919160;29;20467;-93
2021/09/11 14:52:30;;;;;;;5.45;4.95;;;36.30;35.80;;;;;;4920786;29;20035;-93
2021/09/11 14:54:56;;;;;;;8.25;6.30;;;36.30;35.80;;;;;;4905818;29;20036;-95
2021/09/11 14:57:23;;;;;;;6.07;5.47;;;36.30;35.60;;;;;;4915072;29;20060;-95
2021/09/11 14:59:49;;;;;;;6.78;5.10;;;36.30;35.70;;;;;;4903794;29;20127;-93
2021/09/11 15:02:36;;;;;;;6.05;5.45;;;36.20;35.70;;;;;;4910928;29;20515;-96
2021/09/11 15:05:02;;;;;;;9.55;6.95;;;36.30;35.30;;;;;;4909630;29;20045;-94
2021/09/11 15:07:31;;;;;;;7.60;6.80;;;36.30;35.60;;;;;;4884745;29;20045;-93
2021/09/11 15:10:03;;;;;;;7.28;6.40;;;35.90;35.30;;;;;;4885827;29;20040;-93
2021/09/11 15:12:30;;;;;;;7.10;6.43;;;35.50;35.50;;;;;;4887019;29;20472;-93
2021/09/11 15:15:04;;;;;;;8.25;7.35;;;35.10;35.80;;;;;;4902837;29;20123;-94
2021/09/11 15:17:31;;;;;;;8.15;6.93;;;34.70;35.90;;;;;;4904011;29;20074;-95
2021/09/11 15:20:03;;;;;;;7.60;6.90;;;34.40;36.20;;;;;;4912551;29;20044;-94
2021/09/11 15:22:29;;;;;;;7.50;6.38;;;34.10;36.40;;;;;;4886695;29;20028;-94
2021/09/11 15:24:55;;;;;;;6.13;5.53;;;33.90;36.70;;;;;;4916113;29;20036;-93
2021/09/11 15:27:21;;;;;;;6.93;6.22;;;33.70;36.80;;;;;;4915348;29;20033;-93
2021/09/11 15:29:48;;;;;;;6.95;6.25;;;33.50;37.00;;;;;;4903294;29;20048;-92
2021/09/11 22:33:06;;;;;;;9.55;7.32;;;18.10;75.90;;;;;;6072915;23;20329;31
